createdAt,value
2019-03-03T00:02:48.540Z,16.38
2019-03-03T00:08:43.410Z,16.44
2019-03-03T00:11:44.830Z,16.60
2019-03-03T00:14:15.847Z,16.59
2019-03-03T00:19:32.155Z,16.84
2019-03-03T00:22:22.367Z,16.64
2019-03-03T00:25:12.512Z,16.69
2019-03-03T00:31:39.208Z,17.10
2019-03-03T00:33:57.339Z,16.88
2019-03-03T00:37:05.923Z,16.90
2019-03-03T00:46:22.512Z,17.13
2019-03-03T00:49:53.214Z,17.16
2019-03-03T00:53:15.243Z,16.83
2019-03-03T00:59:20.889Z,16.73
2019-03-03T01:05:49.587Z,16.50
2019-03-03T01:09:03.739Z,16.47
2019-03-03T01:12:42.219Z,16.63
2019-03-03T01:15:38.408Z,16.66
2019-03-03T01:18:48.136Z,16.53
2019-03-03T01:24:33.511Z,16.53
2019-03-03T01:37:01.643Z,16.42
2019-03-03T01:39:53.327Z,16.41
2019-03-03T01:49:43.195Z,16.25
2019-03-03T01:51:54.202Z,16.23
2019-03-03T01:54:38.854Z,16.43
2019-03-03T01:57:08.201Z,16.50
2019-03-03T02:00:31.481Z,16.51
2019-03-03T02:03:23.243Z,16.34
2019-03-03T02:09:08.431Z,16.47
2019-03-03T02:15:12.560Z,16.51
2019-03-03T02:18:01.466Z,16.44
2019-03-03T02:26:32.197Z,16.66
2019-03-03T02:29:02.860Z,16.70
2019-03-03T02:35:00.328Z,16.90
2019-03-03T02:40:53.321Z,16.76
2019-03-03T02:43:56.307Z,16.90
2019-03-03T02:46:26.799Z,16.87
2019-03-03T02:49:28.349Z,16.97
2019-03-03T02:52:29.765Z,16.97
2019-03-03T02:58:41.937Z,16.65
2019-03-03T03:01:42.261Z,16.59
2019-03-03T03:04:24.204Z,16.52
2019-03-03T03:10:18.774Z,16.33
2019-03-03T03:13:42.474Z,16.33
2019-03-03T03:17:35.578Z,16.52
2019-03-03T03:19:25.354Z,16.42
2019-03-03T03:25:21.310Z,16.53
2019-03-03T03:32:05.335Z,16.61
2019-03-03T03:35:17.069Z,16.83
2019-03-03T03:38:51.211Z,16.83
2019-03-03T03:41:45.039Z,16.83
2019-03-03T03:45:07.907Z,16.83
2019-03-03T03:47:57.551Z,16.78
2019-03-03T03:51:09.685Z,16.92
2019-03-03T03:54:15.395Z,16.95
2019-03-03T03:57:37.668Z,16.75
2019-03-03T04:07:42.423Z,16.71
2019-03-03T04:13:54.333Z,16.52
2019-03-03T04:17:07.496Z,16.42
2019-03-03T04:20:20.422Z,16.44
2019-03-03T04:23:20.436Z,16.41
2019-03-03T04:26:31.857Z,16.28
2019-03-03T04:29:45.909Z,16.24
2019-03-03T04:32:26.220Z,16.44
2019-03-03T04:36:00.164Z,16.45
2019-03-03T04:38:19.343Z,16.46
2019-03-03T04:41:29.333Z,16.58
2019-03-03T04:44:19.420Z,16.62
2019-03-03T04:56:57.228Z,16.54
2019-03-03T05:00:15.922Z,16.55
2019-03-03T05:03:26.416Z,16.24
2019-03-03T05:06:39.302Z,16.33
2019-03-03T05:12:56.925Z,16.15
2019-03-03T05:19:15.434Z,16.55
2019-03-03T05:22:05.281Z,16.44
2019-03-03T05:24:55.795Z,16.30
2019-03-03T05:27:29.417Z,16.20
2019-03-03T05:33:27.636Z,16.18
2019-03-03T05:36:37.815Z,16.28
2019-03-03T05:39:11.822Z,16.49
2019-03-03T05:42:23.328Z,16.31
2019-03-03T05:44:56.288Z,16.38
2019-03-03T05:47:47.709Z,16.46
2019-03-03T05:50:21.559Z,16.54
2019-03-03T05:53:36.505Z,16.42
2019-03-03T05:56:58.822Z,16.42
2019-03-03T06:00:00.792Z,16.58
2019-03-03T06:02:53.911Z,16.51
2019-03-03T06:05:48.064Z,16.63
2019-03-03T06:08:24.221Z,16.61
2019-03-03T06:10:57.111Z,16.57
2019-03-03T06:13:51.844Z,16.49
2019-03-03T06:19:47.276Z,16.51
2019-03-03T06:25:51.525Z,16.63
2019-03-03T06:32:13.174Z,16.55
2019-03-03T06:35:05.400Z,16.49
2019-03-03T06:38:06.761Z,16.56
2019-03-03T06:43:54.139Z,16.00
2019-03-03T06:49:35.007Z,15.95
2019-03-03T06:52:24.634Z,15.71
2019-03-03T06:55:15.961Z,15.59
2019-03-03T07:00:57.893Z,15.89
2019-03-03T07:03:28.642Z,15.90
2019-03-03T07:06:18.292Z,16.05
2019-03-03T07:08:48.485Z,16.28
2019-03-03T07:11:42.106Z,16.43
2019-03-03T07:23:53.301Z,16.03
2019-03-03T07:26:24.403Z,16.07
2019-03-03T07:29:16.800Z,15.99
2019-03-03T07:31:48.113Z,16.16
2019-03-03T07:37:43.127Z,16.22
2019-03-03T07:43:26.976Z,16.01
2019-03-03T07:46:00.676Z,16.18
2019-03-03T07:48:50.211Z,16.17
2019-03-03T07:51:44.233Z,16.16
2019-03-03T07:58:06.180Z,15.96
2019-03-03T08:00:56.431Z,15.95
2019-03-03T08:04:19.121Z,15.91
2019-03-03T08:06:41.164Z,15.87
2019-03-03T08:09:58.398Z,15.96
2019-03-03T08:16:00.874Z,15.77
2019-03-03T08:22:07.752Z,15.40
2019-03-03T08:27:52.080Z,15.57
2019-03-03T08:33:59.242Z,15.28
2019-03-03T08:37:09.801Z,15.38
2019-03-03T08:40:20.252Z,15.52
2019-03-03T08:43:28.873Z,15.31
2019-03-03T08:46:38.757Z,15.51
2019-03-03T08:49:31.566Z,15.53
2019-03-03T08:55:47.982Z,15.83
2019-03-03T08:58:57.007Z,15.62
2019-03-03T09:02:05.077Z,15.83
2019-03-03T09:05:33.569Z,15.83
2019-03-03T09:08:36.316Z,16.00
2019-03-03T09:11:44.893Z,16.23
2019-03-03T09:14:53.817Z,16.29
2019-03-03T09:18:34.383Z,16.25
2019-03-03T09:20:56.047Z,16.30
2019-03-03T09:24:06.157Z,16.42
2019-03-03T09:27:06.130Z,16.34
2019-03-03T09:30:15.945Z,15.84
2019-03-03T09:33:25.964Z,15.87
2019-03-03T09:36:35.768Z,16.21
2019-03-03T09:39:27.135Z,15.90
2019-03-03T09:42:37.779Z,15.90
2019-03-03T09:45:47.853Z,16.23
2019-03-03T09:48:55.476Z,16.52
2019-03-03T09:55:13.549Z,16.49
2019-03-03T09:58:28.886Z,16.19
2019-03-03T10:01:30.255Z,16.62
2019-03-03T10:04:40.975Z,16.62
2019-03-03T10:08:03.811Z,16.75
2019-03-03T10:10:46.247Z,16.68
2019-03-03T10:13:37.135Z,16.94
2019-03-03T10:16:34.225Z,17.14
2019-03-03T10:19:46.374Z,17.30
2019-03-03T10:22:40.597Z,16.64
2019-03-03T10:25:51.292Z,16.70
2019-03-03T10:29:00.241Z,16.73
2019-03-03T10:32:31.043Z,16.52
2019-03-03T10:39:02.397Z,16.80
2019-03-03T10:42:00.510Z,17.01
2019-03-03T10:45:17.062Z,17.08
2019-03-03T10:48:18.139Z,17.17
2019-03-03T10:51:26.709Z,17.13
2019-03-03T10:54:17.683Z,17.13
2019-03-03T10:57:47.847Z,16.75
2019-03-03T11:03:58.264Z,16.31
2019-03-03T11:13:56.068Z,16.38
2019-03-03T11:19:48.939Z,16.58
2019-03-03T11:23:17.499Z,16.47
2019-03-03T11:26:26.761Z,16.61
2019-03-03T11:29:36.522Z,16.71
2019-03-03T11:32:31.964Z,16.80
2019-03-03T11:35:44.554Z,17.08
2019-03-03T11:38:47.529Z,17.18
2019-03-03T11:41:58.280Z,17.25
2019-03-03T11:45:15.178Z,17.35
2019-03-03T11:48:25.055Z,17.33
2019-03-03T11:51:28.015Z,17.43
2019-03-03T11:54:13.969Z,17.06
2019-03-03T11:57:11.454Z,16.96
2019-03-03T12:00:09.912Z,17.10
2019-03-03T12:03:12.610Z,17.03
2019-03-03T12:06:10.932Z,16.86
2019-03-03T12:09:23.767Z,16.79
2019-03-03T12:12:32.468Z,16.62
2019-03-03T12:18:52.505Z,16.76
2019-03-03T12:25:28.352Z,16.93
2019-03-03T12:31:36.802Z,17.35
2019-03-03T12:34:34.579Z,17.22
2019-03-03T12:37:38.860Z,17.35
2019-03-03T12:47:12.590Z,17.14
2019-03-03T12:50:21.980Z,17.31
2019-03-03T13:03:26.821Z,17.36
2019-03-03T13:06:30.521Z,17.52
2019-03-03T13:09:43.662Z,17.63
2019-03-03T13:12:33.943Z,17.38
2019-03-03T13:19:13.186Z,17.79
2019-03-03T13:22:48.586Z,17.90
2019-03-03T13:25:28.322Z,18.05
2019-03-03T13:28:37.966Z,18.24
2019-03-03T13:31:30.656Z,18.22
2019-03-03T13:34:39.929Z,18.34
2019-03-03T13:37:31.012Z,18.34
2019-03-03T13:40:42.688Z,18.62
2019-03-03T13:47:03.170Z,17.91
2019-03-03T13:49:37.833Z,17.96
2019-03-03T13:52:09.152Z,18.06
2019-03-03T13:54:52.522Z,18.03
2019-03-03T13:57:35.304Z,18.11
2019-03-03T14:00:44.699Z,18.17
2019-03-03T14:03:44.993Z,18.36
2019-03-03T14:06:18.991Z,18.21
2019-03-03T14:14:52.424Z,18.09
2019-03-03T14:17:26.745Z,18.11
2019-03-03T14:20:22.058Z,18.12
2019-03-03T14:22:59.440Z,18.19
2019-03-03T14:25:34.795Z,17.86
2019-03-03T14:28:07.979Z,17.81
2019-03-03T14:33:49.769Z,17.98
2019-03-03T14:43:03.795Z,17.84
2019-03-03T14:45:41.231Z,18.01
2019-03-03T14:51:38.482Z,17.97
2019-03-03T14:54:46.569Z,18.14
2019-03-03T15:00:32.031Z,18.19
2019-03-03T15:03:11.163Z,18.15
2019-03-03T15:06:23.927Z,18.38
2019-03-03T15:09:07.180Z,18.57
2019-03-03T15:14:45.927Z,18.31
2019-03-03T15:20:49.094Z,18.36
2019-03-03T15:24:15.617Z,17.74
2019-03-03T15:27:20.203Z,17.37
2019-03-03T15:30:22.218Z,17.24
2019-03-03T15:33:33.800Z,17.49
2019-03-03T15:36:28.407Z,17.48
2019-03-03T15:42:35.097Z,17.41
2019-03-03T15:45:45.722Z,17.45
2019-03-03T15:51:27.807Z,17.55
2019-03-03T15:53:59.878Z,17.43
2019-03-03T15:56:32.288Z,17.75
2019-03-03T16:02:39.122Z,18.04
2019-03-03T16:05:20.573Z,18.11
2019-03-03T16:07:54.046Z,18.15
2019-03-03T16:10:25.375Z,18.12
2019-03-03T16:13:03.953Z,18.32
2019-03-03T16:31:24.705Z,18.45
2019-03-03T16:40:19.641Z,18.36
2019-03-03T16:42:55.745Z,18.41
2019-03-03T16:46:00.299Z,18.54
2019-03-03T16:55:01.474Z,18.71
2019-03-03T17:09:18.367Z,19.35
2019-03-03T17:12:01.844Z,19.27
2019-03-03T17:18:28.782Z,19.46
2019-03-03T17:21:24.724Z,19.26
2019-03-03T17:24:02.286Z,19.28
2019-03-03T17:27:12.052Z,19.35
2019-03-03T17:29:57.089Z,18.96
2019-03-03T17:32:58.444Z,19.05
2019-03-03T17:36:08.579Z,19.19
2019-03-03T17:39:00.145Z,19.06
2019-03-03T17:42:10.749Z,18.84
2019-03-03T17:45:05.926Z,18.77
2019-03-03T17:51:55.307Z,18.95
2019-03-03T17:54:31.496Z,18.81
2019-03-03T17:57:35.527Z,18.68
2019-03-03T18:04:12.053Z,18.45
2019-03-03T18:07:26.544Z,18.65
2019-03-03T18:10:25.053Z,18.52
2019-03-03T18:17:02.844Z,18.71
2019-03-03T18:25:58.506Z,18.65
2019-03-03T18:28:49.993Z,18.67
2019-03-03T18:35:09.931Z,18.72
2019-03-03T18:40:48.626Z,18.83
2019-03-03T18:43:42.277Z,18.83
2019-03-03T18:46:22.791Z,18.65
2019-03-03T18:55:19.588Z,18.97
2019-03-03T18:58:25.403Z,18.96
2019-03-03T19:00:50.350Z,19.09
2019-03-03T19:04:01.003Z,18.96
2019-03-03T19:12:38.663Z,18.87
2019-03-03T19:15:30.000Z,18.87
2019-03-03T19:18:02.204Z,18.83
2019-03-03T19:20:58.501Z,18.85
2019-03-03T19:29:57.648Z,18.86
2019-03-03T19:35:48.234Z,18.88
2019-03-03T19:44:49.414Z,18.89
2019-03-03T20:04:31.714Z,18.67
2019-03-03T20:07:22.958Z,18.54
2019-03-03T20:17:03.273Z,18.75
2019-03-03T20:20:26.633Z,18.70
2019-03-03T20:26:30.223Z,18.72
2019-03-03T20:29:06.058Z,18.77
2019-03-03T20:32:17.527Z,18.76
2019-03-03T20:35:09.573Z,18.62
2019-03-03T20:38:25.861Z,18.85
2019-03-03T20:44:08.464Z,18.63
2019-03-03T20:47:03.179Z,18.74
2019-03-03T20:56:36.336Z,18.50
2019-03-03T20:59:05.330Z,18.51
2019-03-03T21:02:10.556Z,18.48
2019-03-03T21:08:04.949Z,18.69
2019-03-03T21:11:16.241Z,18.65
2019-03-03T21:17:42.175Z,18.77
2019-03-03T21:19:53.131Z,18.65
2019-03-03T21:22:47.546Z,18.74
2019-03-03T21:29:03.827Z,18.72
2019-03-03T21:31:28.130Z,18.81
2019-03-03T21:37:54.126Z,18.80
2019-03-03T21:40:52.373Z,18.84
2019-03-03T21:43:42.392Z,18.80
2019-03-03T21:46:32.709Z,18.63
2019-03-03T21:49:22.301Z,18.59
2019-03-03T21:52:32.124Z,18.61
2019-03-03T21:58:36.221Z,18.41
2019-03-03T22:01:25.998Z,18.21
2019-03-03T22:07:14.152Z,18.06
2019-03-03T22:10:42.978Z,18.02
2019-03-03T22:13:39.261Z,17.97
2019-03-03T22:16:30.660Z,18.02
2019-03-03T22:22:18.100Z,17.89
2019-03-03T22:31:17.805Z,17.74
2019-03-03T22:37:18.057Z,17.79
2019-03-03T22:40:19.069Z,17.87
2019-03-03T22:42:53.665Z,17.98
2019-03-03T22:45:50.075Z,17.81
2019-03-03T22:51:27.500Z,18.05
2019-03-03T22:54:13.820Z,18.03
2019-03-03T22:57:13.298Z,17.81
2019-03-03T23:00:34.627Z,17.84
2019-03-03T23:05:50.051Z,17.75
2019-03-03T23:09:02.045Z,17.68
2019-03-03T23:12:01.303Z,17.58
2019-03-03T23:15:12.765Z,17.85
2019-03-03T23:18:22.959Z,17.81
2019-03-03T23:21:32.336Z,18.00
2019-03-03T23:24:42.891Z,18.07
2019-03-03T23:27:34.358Z,18.08
2019-03-03T23:30:08.907Z,17.93
2019-03-03T23:32:40.806Z,17.97
2019-03-03T23:35:50.190Z,18.02
2019-03-03T23:41:48.293Z,18.35
2019-03-03T23:44:31.732Z,18.31
2019-03-03T23:47:05.423Z,18.41
2019-03-03T23:49:59.401Z,18.39
2019-03-03T23:52:31.182Z,18.32
2019-03-03T23:58:22.582Z,18.49
